01TN weather

Colonial Air Park
Collierville, Tennessee, United States

Public forecast

Using degrees Fahrenheit for public forecast. Weather courtesy of forecast.io.

Closest aviation weather report (METAR) to Colonial Air Park

Closest report is Olive Branch Airport, 3.0 nm (5.5 km) WSW. Retrieved 2020/02/21 23:50 UTC (43 minutes ago):

KOLV 212350Z 05004KT 10SM SKC 03/M09 A3054

Closest aviation forecast (TAF) to Colonial Air Park

Closest forecast is Memphis International Airport, 12.4 nm (23.0 km) WNW. Retrieved 2020-02-22 00:24 UTC (9 minutes ago):

TAF KMEM 212323Z 2200/2306 34006KT P6SM SKC FM220100 VRB02KT P6SM SKC FM221600 20007KT P6SM FEW250 FM230000 18003KT P6SM SCT250